createdAt,value
2023-03-13T00:00:31.606Z,100.00
2023-03-13T00:03:02.883Z,100.00
2023-03-13T00:05:35.854Z,100.00
2023-03-13T00:08:07.150Z,100.00
2023-03-13T00:10:39.994Z,100.00
2023-03-13T00:13:11.315Z,100.00
2023-03-13T00:15:42.657Z,100.00
2023-03-13T00:18:13.987Z,100.00
2023-03-13T00:20:48.721Z,100.00
2023-03-13T00:23:19.989Z,100.00
2023-03-13T00:26:03.196Z,100.00
2023-03-13T00:28:36.146Z,100.00
2023-03-13T00:31:17.401Z,100.00
2023-03-13T00:33:52.012Z,100.00
2023-03-13T00:36:25.839Z,100.00
2023-03-13T00:38:57.858Z,100.00
2023-03-13T00:41:31.911Z,100.00
2023-03-13T00:44:03.638Z,100.00
2023-03-13T00:46:35.834Z,100.00
2023-03-13T00:49:07.150Z,100.00
2023-03-13T00:51:38.512Z,100.00
2023-03-13T00:54:09.772Z,100.00
2023-03-13T00:56:41.091Z,100.00
2023-03-13T00:59:12.384Z,100.00
2023-03-13T01:01:43.748Z,100.00
2023-03-13T01:04:15.045Z,100.00
2023-03-13T01:06:46.339Z,100.00
2023-03-13T01:09:18.049Z,100.00
2023-03-13T01:11:49.352Z,100.00
2023-03-13T01:14:20.664Z,100.00
2023-03-13T01:16:51.955Z,100.00
2023-03-13T01:19:23.254Z,100.00
2023-03-13T01:21:54.559Z,100.00
2023-03-13T01:24:25.880Z,100.00
2023-03-13T01:26:58.200Z,100.00
2023-03-13T01:29:29.474Z,100.00
2023-03-13T01:32:00.852Z,100.00
2023-03-13T01:34:32.189Z,100.00
2023-03-13T01:37:04.594Z,100.00
2023-03-13T01:39:35.859Z,100.00
2023-03-13T01:42:07.315Z,100.00
2023-03-13T01:44:53.286Z,100.00
2023-03-13T01:47:24.578Z,100.00
2023-03-13T01:49:55.978Z,100.00
2023-03-13T01:52:31.083Z,100.00
2023-03-13T01:55:11.726Z,100.00
2023-03-13T01:57:50.651Z,100.00
2023-03-13T02:00:29.570Z,100.00
2023-03-13T02:03:15.008Z,100.00
2023-03-13T02:05:49.438Z,100.00
2023-03-13T02:08:23.648Z,100.00
2023-03-13T02:11:07.613Z,100.00
2023-03-13T02:13:38.929Z,100.00
2023-03-13T02:16:11.436Z,100.00
2023-03-13T02:18:42.899Z,100.00
2023-03-13T02:21:25.603Z,100.00
2023-03-13T02:24:13.740Z,100.00
2023-03-13T02:26:45.033Z,100.00
2023-03-13T02:29:18.377Z,100.00
2023-03-13T02:31:50.794Z,100.00
2023-03-13T02:34:28.508Z,100.00
2023-03-13T02:37:01.631Z,100.00
2023-03-13T02:39:34.534Z,100.00
2023-03-13T02:42:13.569Z,100.00
2023-03-13T02:44:47.484Z,100.00
2023-03-13T02:47:20.911Z,100.00
2023-03-13T02:49:52.193Z,100.00
2023-03-13T02:52:28.040Z,100.00
2023-03-13T02:55:04.225Z,100.00
2023-03-13T02:57:35.600Z,100.00
2023-03-13T03:00:12.392Z,100.00
2023-03-13T03:02:44.516Z,100.00
2023-03-13T03:05:15.870Z,100.00
2023-03-13T03:07:47.137Z,100.00
2023-03-13T03:10:19.292Z,100.00
2023-03-13T03:12:50.603Z,100.00
2023-03-13T03:15:22.588Z,100.00
2023-03-13T03:17:53.914Z,100.00
2023-03-13T03:20:26.196Z,100.00
2023-03-13T03:22:57.479Z,100.00
2023-03-13T03:25:28.793Z,100.00
2023-03-13T03:28:00.096Z,100.00
2023-03-13T03:30:31.367Z,100.00
2023-03-13T03:33:04.095Z,100.00
2023-03-13T03:35:38.473Z,100.00
2023-03-13T03:38:09.861Z,100.00
2023-03-13T03:40:41.142Z,100.00
2023-03-13T03:43:12.442Z,100.00
2023-03-13T03:45:43.752Z,100.00
2023-03-13T03:48:15.054Z,100.00
2023-03-13T03:50:46.344Z,100.00
2023-03-13T03:53:17.612Z,100.00
2023-03-13T03:55:49.439Z,100.00
2023-03-13T03:58:20.797Z,100.00
2023-03-13T04:00:52.230Z,100.00
2023-03-13T04:03:24.276Z,100.00
2023-03-13T04:05:55.627Z,100.00
2023-03-13T04:08:27.088Z,100.00
2023-03-13T04:11:01.565Z,100.00
2023-03-13T04:13:32.963Z,100.00
2023-03-13T04:16:10.890Z,100.00
2023-03-13T04:18:42.223Z,100.00
2023-03-13T04:21:13.548Z,100.00
2023-03-13T04:23:44.810Z,100.00
2023-03-13T04:26:16.088Z,100.00
2023-03-13T04:28:47.371Z,100.00
2023-03-13T04:31:18.818Z,100.00
2023-03-13T04:33:50.719Z,100.00
2023-03-13T04:36:22.179Z,100.00
2023-03-13T04:38:53.548Z,100.00
2023-03-13T04:41:24.829Z,100.00
2023-03-13T04:43:56.104Z,100.00
2023-03-13T04:46:27.480Z,100.00
2023-03-13T04:48:58.868Z,100.00
2023-03-13T04:51:30.224Z,100.00
2023-03-13T04:54:01.552Z,100.00
2023-03-13T04:56:43.166Z,100.00
2023-03-13T04:59:15.826Z,100.00
2023-03-13T05:01:47.189Z,100.00
2023-03-13T05:04:18.532Z,100.00
2023-03-13T05:06:49.840Z,100.00
2023-03-13T05:09:21.111Z,100.00
2023-03-13T05:11:52.372Z,100.00
2023-03-13T05:14:23.689Z,100.00
2023-03-13T05:16:55.080Z,100.00
2023-03-13T05:19:26.400Z,100.00
2023-03-13T05:21:57.738Z,100.00
2023-03-13T05:24:29.024Z,100.00
2023-03-13T05:27:00.298Z,100.00
2023-03-13T05:29:31.744Z,100.00
2023-03-13T05:32:03.176Z,100.00
2023-03-13T05:34:34.496Z,100.00
2023-03-13T05:37:05.822Z,100.00
2023-03-13T05:39:37.223Z,100.00
2023-03-13T05:42:08.492Z,100.00
2023-03-13T05:44:39.925Z,100.00
2023-03-13T05:47:11.294Z,100.00
2023-03-13T05:49:42.617Z,100.00
2023-03-13T05:52:13.949Z,100.00
2023-03-13T05:54:45.234Z,100.00
2023-03-13T05:57:16.640Z,100.00
2023-03-13T05:59:47.916Z,100.00
2023-03-13T06:02:20.666Z,100.00
2023-03-13T06:04:52.240Z,100.00
2023-03-13T06:07:23.604Z,100.00
2023-03-13T06:09:54.861Z,100.00
2023-03-13T06:12:26.202Z,100.00
2023-03-13T06:14:57.510Z,100.00
2023-03-13T06:17:28.936Z,100.00
2023-03-13T06:20:00.210Z,100.00
2023-03-13T06:22:31.788Z,100.00
2023-03-13T06:25:03.354Z,100.00
2023-03-13T06:27:35.451Z,100.00
2023-03-13T06:30:08.184Z,100.00
2023-03-13T06:32:39.588Z,100.00
2023-03-13T06:35:11.014Z,100.00
2023-03-13T06:37:42.296Z,100.00
2023-03-13T06:40:13.863Z,100.00
2023-03-13T06:42:45.119Z,100.00
2023-03-13T06:45:16.564Z,100.00
2023-03-13T06:47:47.942Z,100.00
2023-03-13T06:50:19.311Z,100.00
2023-03-13T06:52:50.593Z,100.00
2023-03-13T06:55:21.917Z,100.00
2023-03-13T06:57:53.341Z,100.00
2023-03-13T07:00:24.965Z,100.00
2023-03-13T07:02:56.286Z,100.00
2023-03-13T07:05:27.643Z,100.00
2023-03-13T07:07:59.569Z,100.00
2023-03-13T07:10:31.468Z,100.00
2023-03-13T07:13:02.832Z,100.00
2023-03-13T07:15:34.109Z,100.00
2023-03-13T07:18:05.440Z,100.00
2023-03-13T07:20:36.809Z,100.00
2023-03-13T07:23:08.091Z,100.00
2023-03-13T07:25:39.749Z,100.00
2023-03-13T07:28:11.121Z,100.00
2023-03-13T07:30:42.387Z,100.00
2023-03-13T07:33:13.657Z,100.00
2023-03-13T07:35:52.330Z,100.00
2023-03-13T07:38:23.605Z,100.00
2023-03-13T07:40:57.088Z,100.00
2023-03-13T07:43:29.402Z,100.00
2023-03-13T07:46:03.300Z,100.00
2023-03-13T07:48:42.421Z,100.00
2023-03-13T07:51:17.354Z,100.00
2023-03-13T07:53:50.365Z,100.00
2023-03-13T07:56:23.627Z,100.00
2023-03-13T07:58:54.888Z,100.00
2023-03-13T08:01:30.470Z,100.00
2023-03-13T08:04:02.392Z,100.00
2023-03-13T08:06:37.701Z,100.00
2023-03-13T08:09:09.873Z,100.00
2023-03-13T08:11:41.371Z,100.00
2023-03-13T08:14:13.083Z,100.00
2023-03-13T08:16:44.467Z,100.00
2023-03-13T08:19:15.820Z,100.00
2023-03-13T08:21:47.076Z,100.00
2023-03-13T08:24:18.393Z,100.00
2023-03-13T08:26:49.711Z,100.00
2023-03-13T08:29:21.025Z,100.00
2023-03-13T08:31:52.666Z,100.00
2023-03-13T08:34:23.991Z,100.00
2023-03-13T08:36:56.840Z,100.00
2023-03-13T08:39:28.290Z,100.00
2023-03-13T08:41:59.548Z,100.00
2023-03-13T08:44:30.926Z,100.00
2023-03-13T08:47:02.326Z,100.00
2023-03-13T08:49:33.792Z,100.00
2023-03-13T08:52:06.032Z,100.00
2023-03-13T08:54:37.301Z,100.00
2023-03-13T08:57:08.600Z,100.00
2023-03-13T08:59:39.868Z,100.00
2023-03-13T09:02:11.331Z,100.00
2023-03-13T09:04:42.633Z,100.00
2023-03-13T09:07:14.160Z,100.00
2023-03-13T09:09:45.494Z,100.00
2023-03-13T09:12:29.896Z,100.00
2023-03-13T09:15:01.897Z,100.00
2023-03-13T09:17:33.275Z,100.00
2023-03-13T09:20:05.152Z,100.00
2023-03-13T09:22:36.424Z,100.00
2023-03-13T09:25:08.084Z,100.00
2023-03-13T09:27:39.914Z,100.00
2023-03-13T09:30:11.795Z,100.00
2023-03-13T09:32:43.130Z,100.00
2023-03-13T09:35:14.559Z,100.00
2023-03-13T09:37:45.990Z,100.00
2023-03-13T09:40:20.586Z,100.00
2023-03-13T09:43:00.471Z,100.00
2023-03-13T09:45:37.219Z,100.00
2023-03-13T09:48:35.940Z,100.00
2023-03-13T09:51:16.510Z,100.00
2023-03-13T09:53:56.575Z,100.00
2023-03-13T09:56:56.607Z,100.00
2023-03-13T09:59:43.445Z,100.00
2023-03-13T10:02:28.366Z,100.00
2023-03-13T10:05:09.550Z,100.00
2023-03-13T10:07:41.110Z,100.00
2023-03-13T10:10:19.157Z,100.00
2023-03-13T10:12:56.102Z,100.00
2023-03-13T10:15:49.038Z,100.00
2023-03-13T10:18:23.331Z,100.00
2023-03-13T10:21:01.652Z,100.00
2023-03-13T10:23:40.606Z,100.00
2023-03-13T10:26:26.698Z,100.00
2023-03-13T10:29:24.197Z,100.00
2023-03-13T10:32:04.223Z,100.00
2023-03-13T10:34:58.099Z,100.00
2023-03-13T10:37:31.891Z,100.00
2023-03-13T10:40:14.353Z,100.00
2023-03-13T10:42:46.184Z,100.00
2023-03-13T10:45:23.977Z,100.00
2023-03-13T10:48:01.695Z,100.00
2023-03-13T10:50:34.892Z,100.00
2023-03-13T10:53:30.557Z,100.00
2023-03-13T10:56:19.292Z,100.00
2023-03-13T10:58:53.145Z,100.00
2023-03-13T11:01:33.901Z,100.00
2023-03-13T11:04:29.831Z,100.00
2023-03-13T11:07:25.916Z,100.00
2023-03-13T11:09:59.314Z,100.00
2023-03-13T11:12:34.726Z,100.00
2023-03-13T11:15:15.256Z,100.00
2023-03-13T11:18:00.121Z,100.00
2023-03-13T11:20:43.461Z,100.00
2023-03-13T11:23:22.697Z,100.00
2023-03-13T11:26:06.686Z,100.00
2023-03-13T11:28:50.524Z,100.00
2023-03-13T11:31:28.828Z,100.00
2023-03-13T11:34:06.255Z,100.00
2023-03-13T11:36:52.482Z,100.00
2023-03-13T11:39:51.109Z,100.00
2023-03-13T11:42:57.074Z,100.00
2023-03-13T11:46:06.760Z,100.00
2023-03-13T11:48:40.780Z,100.00
2023-03-13T11:51:20.942Z,100.00
2023-03-13T11:54:10.723Z,100.00
2023-03-13T11:56:46.778Z,100.00
2023-03-13T11:59:21.073Z,100.00
2023-03-13T12:02:03.920Z,100.00
2023-03-13T12:04:42.005Z,100.00
2023-03-13T12:07:34.175Z,100.00
2023-03-13T12:10:08.162Z,100.00
2023-03-13T12:12:45.120Z,100.00
2023-03-13T12:15:31.673Z,100.00
2023-03-13T12:18:09.455Z,100.00
2023-03-13T12:20:49.914Z,100.00
2023-03-13T12:23:35.903Z,100.00
2023-03-13T12:26:19.157Z,100.00
2023-03-13T12:29:36.086Z,100.00
2023-03-13T12:32:27.251Z,100.00
2023-03-13T12:35:08.330Z,100.00
2023-03-13T12:37:47.514Z,100.00
2023-03-13T12:40:37.394Z,100.00
2023-03-13T12:43:18.913Z,100.00
2023-03-13T12:45:59.790Z,100.00
2023-03-13T12:48:43.856Z,100.00
2023-03-13T12:51:40.239Z,100.00
2023-03-13T12:54:45.973Z,100.00
2023-03-13T12:57:55.200Z,100.00
2023-03-13T13:00:30.175Z,100.00
2023-03-13T13:03:18.422Z,100.00
2023-03-13T13:06:05.906Z,100.00
2023-03-13T13:08:43.285Z,100.00
2023-03-13T13:11:39.333Z,100.00
2023-03-13T13:14:19.854Z,100.00
2023-03-13T13:16:57.985Z,100.00
2023-03-13T13:19:41.149Z,100.00
2023-03-13T13:22:36.460Z,98.93
2023-03-13T13:25:10.492Z,99.85
2023-03-13T13:27:41.732Z,100.00
2023-03-13T13:30:18.793Z,97.55
2023-03-13T13:32:52.489Z,99.41
2023-03-13T13:35:33.081Z,98.69
2023-03-13T13:38:19.762Z,98.79
2023-03-13T13:41:09.426Z,98.51
2023-03-13T13:43:45.880Z,98.40
2023-03-13T13:46:29.151Z,98.08
2023-03-13T13:49:08.192Z,97.56
2023-03-13T13:51:40.943Z,92.71
2023-03-13T13:54:18.262Z,97.17
2023-03-13T13:57:01.427Z,96.91
2023-03-13T13:59:41.065Z,97.85
2023-03-13T14:02:17.363Z,96.00
2023-03-13T14:04:53.796Z,97.53
2023-03-13T14:07:37.144Z,97.82
2023-03-13T14:10:30.222Z,97.16
2023-03-13T14:13:05.384Z,97.96
2023-03-13T14:15:36.811Z,97.03
2023-03-13T14:18:22.912Z,97.69
2023-03-13T14:21:00.639Z,96.71
2023-03-13T14:23:34.824Z,97.43
2023-03-13T14:26:21.883Z,95.16
2023-03-13T14:28:54.687Z,93.83
2023-03-13T14:31:31.751Z,93.72
2023-03-13T14:34:05.656Z,94.83
2023-03-13T14:36:50.693Z,93.50
2023-03-13T14:39:37.509Z,92.33
2023-03-13T14:42:17.054Z,94.18
2023-03-13T14:44:50.048Z,94.54
2023-03-13T14:47:21.412Z,94.87
2023-03-13T14:50:01.387Z,94.41
2023-03-13T14:52:33.942Z,94.40
2023-03-13T14:55:27.156Z,91.08
2023-03-13T14:58:03.567Z,93.30
2023-03-13T15:00:43.323Z,92.90
2023-03-13T15:03:18.775Z,91.10
2023-03-13T15:06:07.459Z,93.00
2023-03-13T15:08:42.483Z,94.32
2023-03-13T15:11:20.221Z,93.18
2023-03-13T15:13:51.702Z,93.88
2023-03-13T15:16:24.607Z,93.43
2023-03-13T15:18:56.902Z,92.90
2023-03-13T15:21:33.819Z,92.88
2023-03-13T15:24:15.057Z,92.40
2023-03-13T15:26:49.457Z,92.44
2023-03-13T15:29:20.870Z,90.48
2023-03-13T15:31:52.270Z,91.38
2023-03-13T15:34:25.274Z,92.01
2023-03-13T15:36:56.550Z,91.93
2023-03-13T15:39:29.655Z,91.30
2023-03-13T15:42:01.075Z,91.83
2023-03-13T15:44:32.451Z,91.95
2023-03-13T15:47:04.013Z,91.94
2023-03-13T15:49:35.350Z,91.51
2023-03-13T15:52:17.479Z,91.15
2023-03-13T15:54:50.303Z,91.56
2023-03-13T15:57:25.348Z,90.59
2023-03-13T15:59:56.651Z,91.39
2023-03-13T16:02:27.925Z,91.46
2023-03-13T16:04:59.310Z,91.53
2023-03-13T16:07:30.713Z,90.46
2023-03-13T16:10:02.092Z,91.11
2023-03-13T16:12:33.413Z,89.72
2023-03-13T16:15:05.224Z,90.64
2023-03-13T16:17:36.815Z,90.78
2023-03-13T16:20:18.951Z,90.17
2023-03-13T16:22:52.980Z,88.87
2023-03-13T16:25:25.481Z,89.52
2023-03-13T16:27:57.228Z,89.01
2023-03-13T16:30:31.525Z,90.50
2023-03-13T16:33:03.041Z,90.42
2023-03-13T16:35:34.875Z,90.02
2023-03-13T16:38:08.386Z,90.51
2023-03-13T16:40:39.776Z,90.31
2023-03-13T16:43:12.630Z,90.16
2023-03-13T16:45:43.923Z,89.85
2023-03-13T16:48:19.053Z,89.49
2023-03-13T16:50:50.324Z,90.06
2023-03-13T16:53:21.690Z,90.21
2023-03-13T16:55:53.444Z,89.81
2023-03-13T16:58:24.708Z,89.28
2023-03-13T17:01:05.298Z,89.45
2023-03-13T17:03:37.294Z,90.19
2023-03-13T17:06:42.365Z,88.36
2023-03-13T17:09:16.827Z,90.62
2023-03-13T17:11:48.206Z,89.95
2023-03-13T17:14:19.528Z,89.77
2023-03-13T17:16:50.938Z,90.14
2023-03-13T17:19:22.433Z,90.29
2023-03-13T17:21:53.788Z,90.23
2023-03-13T17:24:25.299Z,89.89
2023-03-13T17:26:56.688Z,90.36
2023-03-13T17:29:28.038Z,89.46
2023-03-13T17:31:59.347Z,90.17
2023-03-13T17:34:31.232Z,90.00
2023-03-13T17:37:04.764Z,90.17
2023-03-13T17:39:37.317Z,90.51
2023-03-13T17:42:08.664Z,90.63
2023-03-13T17:44:41.155Z,88.51
2023-03-13T17:47:15.471Z,90.18
2023-03-13T17:49:46.789Z,90.49
2023-03-13T17:52:18.106Z,90.31
2023-03-13T17:54:49.480Z,90.88
2023-03-13T17:57:22.443Z,90.85
2023-03-13T17:59:53.751Z,91.06
2023-03-13T18:02:25.460Z,90.87
2023-03-13T18:04:56.853Z,90.59
2023-03-13T18:07:29.521Z,90.96
2023-03-13T18:10:00.895Z,90.93
2023-03-13T18:12:32.183Z,91.19
2023-03-13T18:15:03.759Z,90.92
2023-03-13T18:17:35.084Z,91.00
2023-03-13T18:20:14.367Z,91.16
2023-03-13T18:22:46.671Z,91.33
2023-03-13T18:25:18.035Z,91.65
2023-03-13T18:27:49.379Z,91.67
2023-03-13T18:30:23.830Z,91.13
2023-03-13T18:32:55.129Z,91.96
2023-03-13T18:35:26.458Z,91.61
2023-03-13T18:37:57.835Z,91.68
2023-03-13T18:40:29.212Z,91.57
2023-03-13T18:43:00.563Z,91.90
2023-03-13T18:45:31.885Z,91.84
2023-03-13T18:48:03.336Z,91.83
2023-03-13T18:50:34.682Z,91.95
2023-03-13T18:53:06.092Z,91.87
2023-03-13T18:55:37.418Z,92.13
2023-03-13T18:58:11.668Z,92.17
2023-03-13T19:00:43.033Z,92.31
2023-03-13T19:03:14.537Z,92.51
2023-03-13T19:05:49.923Z,92.54
2023-03-13T19:08:21.281Z,92.32
2023-03-13T19:10:52.694Z,92.58
2023-03-13T19:13:24.003Z,92.81
2023-03-13T19:15:55.497Z,92.33
2023-03-13T19:18:26.804Z,93.02
2023-03-13T19:20:58.586Z,92.99
2023-03-13T19:23:29.836Z,93.22
2023-03-13T19:26:01.149Z,93.01
2023-03-13T19:28:32.458Z,93.06
2023-03-13T19:31:03.908Z,93.06
2023-03-13T19:33:35.217Z,93.15
2023-03-13T19:36:17.220Z,93.10
2023-03-13T19:38:49.054Z,93.29
2023-03-13T19:41:20.347Z,93.37
2023-03-13T19:43:51.635Z,93.53
2023-03-13T19:46:26.065Z,93.36
2023-03-13T19:48:59.616Z,93.44
2023-03-13T19:51:31.316Z,93.20
2023-03-13T19:54:02.790Z,93.52
2023-03-13T19:56:34.251Z,93.56
2023-03-13T19:59:10.168Z,93.49
2023-03-13T20:01:42.148Z,93.44
2023-03-13T20:04:13.840Z,93.54
2023-03-13T20:06:45.681Z,93.66
2023-03-13T20:09:18.163Z,93.84
2023-03-13T20:11:49.675Z,93.85
2023-03-13T20:14:21.112Z,93.73
2023-03-13T20:16:52.451Z,93.63
2023-03-13T20:19:26.067Z,93.95
2023-03-13T20:22:03.307Z,94.07
2023-03-13T20:24:34.601Z,94.12
2023-03-13T20:27:05.953Z,94.10
2023-03-13T20:29:37.223Z,94.49
2023-03-13T20:32:08.526Z,94.53
2023-03-13T20:34:39.873Z,94.72
2023-03-13T20:37:12.445Z,94.69
2023-03-13T20:39:43.746Z,94.76
2023-03-13T20:42:16.386Z,94.75
2023-03-13T20:44:47.676Z,94.80
2023-03-13T20:47:19.461Z,95.18
2023-03-13T20:49:50.754Z,94.84
2023-03-13T20:52:22.024Z,95.13
2023-03-13T20:54:53.312Z,95.16
2023-03-13T20:57:25.628Z,95.55
2023-03-13T20:59:56.948Z,95.42
2023-03-13T21:02:29.259Z,95.59
2023-03-13T21:05:00.599Z,95.62
2023-03-13T21:07:32.277Z,95.83
2023-03-13T21:10:04.035Z,95.34
2023-03-13T21:12:36.276Z,95.80
2023-03-13T21:15:08.922Z,95.87
2023-03-13T21:17:41.458Z,95.88
2023-03-13T21:20:13.108Z,95.89
2023-03-13T21:22:44.428Z,95.94
2023-03-13T21:25:17.439Z,95.80
2023-03-13T21:27:48.787Z,96.13
2023-03-13T21:30:21.569Z,96.11
2023-03-13T21:32:54.261Z,95.68
2023-03-13T21:35:25.891Z,96.14
2023-03-13T21:37:58.224Z,95.88
2023-03-13T21:40:29.531Z,96.42
2023-03-13T21:43:00.871Z,96.25
2023-03-13T21:45:32.133Z,96.43
2023-03-13T21:48:03.692Z,96.28
2023-03-13T21:50:35.009Z,96.11
2023-03-13T21:53:06.302Z,96.30
2023-03-13T21:55:39.803Z,96.71
2023-03-13T21:58:11.082Z,96.42
2023-03-13T22:00:42.753Z,96.59
2023-03-13T22:03:14.120Z,96.62
2023-03-13T22:05:45.575Z,97.19
2023-03-13T22:08:16.933Z,96.80
2023-03-13T22:10:49.664Z,97.26
2023-03-13T22:13:21.200Z,97.24
2023-03-13T22:15:52.720Z,97.17
2023-03-13T22:18:24.150Z,96.78
2023-03-13T22:20:59.579Z,96.96
2023-03-13T22:23:30.929Z,97.27
2023-03-13T22:26:02.281Z,96.90
2023-03-13T22:28:33.546Z,97.13
2023-03-13T22:31:06.543Z,96.80
2023-03-13T22:33:37.967Z,96.90
2023-03-13T22:36:10.285Z,97.39
2023-03-13T22:38:41.663Z,97.19
2023-03-13T22:41:14.015Z,96.95
2023-03-13T22:43:45.282Z,97.10
2023-03-13T22:46:16.621Z,97.18
2023-03-13T22:48:47.890Z,97.64
2023-03-13T22:51:19.373Z,97.42
2023-03-13T22:53:50.642Z,97.57
2023-03-13T22:56:21.977Z,97.51
2023-03-13T22:58:53.268Z,97.61
2023-03-13T23:01:24.682Z,97.56
2023-03-13T23:03:56.001Z,97.35
2023-03-13T23:06:27.327Z,97.09
2023-03-13T23:08:58.640Z,96.77
2023-03-13T23:11:30.130Z,97.19
2023-03-13T23:14:01.750Z,96.81
2023-03-13T23:16:33.106Z,97.10
2023-03-13T23:19:04.461Z,97.39
2023-03-13T23:21:35.730Z,97.55
2023-03-13T23:24:07.404Z,97.87
2023-03-13T23:26:38.791Z,98.21
2023-03-13T23:29:10.110Z,98.55
2023-03-13T23:31:41.374Z,99.13
2023-03-13T23:34:13.257Z,99.19
2023-03-13T23:36:44.530Z,99.20
2023-03-13T23:39:15.882Z,99.40
2023-03-13T23:41:47.172Z,99.67
2023-03-13T23:44:18.485Z,99.92
2023-03-13T23:46:49.850Z,99.90
2023-03-13T23:49:21.118Z,100.00
2023-03-13T23:51:52.429Z,100.00
2023-03-13T23:54:23.746Z,100.00
2023-03-13T23:56:55.022Z,100.00
2023-03-13T23:59:26.408Z,100.00
